sensor_id;sensor_type;location;lat;lon;timestamp;temperature;humidity
40670;DHT22;26355;45.528;9.234;2023-05-20T00:02:09;17.30;99.90
40670;DHT22;26355;45.528;9.234;2023-05-20T00:04:34;17.40;99.90
40670;DHT22;26355;45.528;9.234;2023-05-20T00:07:00;17.80;99.90
40670;DHT22;26355;45.528;9.234;2023-05-20T00:09:25;17.30;99.90
40670;DHT22;26355;45.528;9.234;2023-05-20T00:11:51;17.40;99.90
40670;DHT22;26355;45.528;9.234;2023-05-20T00:14:16;17.30;99.90
40670;DHT22;26355;45.528;9.234;2023-05-20T00:16:42;17.60;99.90
40670;DHT22;26355;45.528;9.234;2023-05-20T00:19:07;17.40;99.90
40670;DHT22;26355;45.528;9.234;2023-05-20T00:21:33;17.30;99.90
40670;DHT22;26355;45.528;9.234;2023-05-20T00:23:59;17.30;99.90
40670;DHT22;26355;45.528;9.234;2023-05-20T00:26:24;17.30;99.90
40670;DHT22;26355;45.528;9.234;2023-05-20T00:28:50;17.30;99.90
40670;DHT22;26355;45.528;9.234;2023-05-20T00:31:16;17.20;99.90
40670;DHT22;26355;45.528;9.234;2023-05-20T00:33:41;17.20;99.90
40670;DHT22;26355;45.528;9.234;2023-05-20T00:36:07;17.30;99.90
40670;DHT22;26355;45.528;9.234;2023-05-20T00:38:33;17.20;99.90
40670;DHT22;26355;45.528;9.234;2023-05-20T00:40:59;17.10;99.90
40670;DHT22;26355;45.528;9.234;2023-05-20T00:43:24;17.10;99.90
40670;DHT22;26355;45.528;9.234;2023-05-20T00:45:52;17.10;99.90
40670;DHT22;26355;45.528;9.234;2023-05-20T00:48:18;17.10;99.90
40670;DHT22;26355;45.528;9.234;2023-05-20T00:50:46;17.10;99.90
40670;DHT22;26355;45.528;9.234;2023-05-20T00:53:11;17.20;99.90
40670;DHT22;26355;45.528;9.234;2023-05-20T00:55:38;17.10;99.90
40670;DHT22;26355;45.528;9.234;2023-05-20T00:58:04;17.10;99.90
40670;DHT22;26355;45.528;9.234;2023-05-20T01:00:30;17.00;99.90
40670;DHT22;26355;45.528;9.234;2023-05-20T01:02:55;17.10;99.90
40670;DHT22;26355;45.528;9.234;2023-05-20T01:05:21;16.90;99.90
40670;DHT22;26355;45.528;9.234;2023-05-20T01:07:47;17.10;99.90
40670;DHT22;26355;45.528;9.234;2023-05-20T01:10:12;17.10;99.90
40670;DHT22;26355;45.528;9.234;2023-05-20T01:12:42;17.10;99.90
40670;DHT22;26355;45.528;9.234;2023-05-20T01:15:11;17.20;99.90
40670;DHT22;26355;45.528;9.234;2023-05-20T01:17:40;17.00;99.90
40670;DHT22;26355;45.528;9.234;2023-05-20T01:20:09;17.00;99.90
40670;DHT22;26355;45.528;9.234;2023-05-20T01:25:11;17.10;99.90
40670;DHT22;26355;45.528;9.234;2023-05-20T01:27:37;17.10;99.90
40670;DHT22;26355;45.528;9.234;2023-05-20T01:30:02;17.10;99.90
40670;DHT22;26355;45.528;9.234;2023-05-20T01:32:35;17.00;99.90
40670;DHT22;26355;45.528;9.234;2023-05-20T01:35:02;17.10;99.90
40670;DHT22;26355;45.528;9.234;2023-05-20T01:37:29;17.10;99.90
40670;DHT22;26355;45.528;9.234;2023-05-20T01:39:56;17.10;99.90
40670;DHT22;26355;45.528;9.234;2023-05-20T01:42:22;17.10;99.90
40670;DHT22;26355;45.528;9.234;2023-05-20T01:44:48;17.80;99.90
40670;DHT22;26355;45.528;9.234;2023-05-20T01:47:13;17.70;99.90
40670;DHT22;26355;45.528;9.234;2023-05-20T01:49:39;17.00;99.90
40670;DHT22;26355;45.528;9.234;2023-05-20T01:52:05;17.10;99.90
40670;DHT22;26355;45.528;9.234;2023-05-20T01:54:31;17.00;99.90
40670;DHT22;26355;45.528;9.234;2023-05-20T01:56:56;17.10;99.90
40670;DHT22;26355;45.528;9.234;2023-05-20T01:59:22;17.00;99.90
40670;DHT22;26355;45.528;9.234;2023-05-20T02:01:47;17.10;99.90
40670;DHT22;26355;45.528;9.234;2023-05-20T02:04:13;17.00;99.90
40670;DHT22;26355;45.528;9.234;2023-05-20T02:06:39;17.20;99.90
40670;DHT22;26355;45.528;9.234;2023-05-20T02:09:04;17.10;99.90
40670;DHT22;26355;45.528;9.234;2023-05-20T02:11:30;17.20;99.90
40670;DHT22;26355;45.528;9.234;2023-05-20T02:13:56;16.90;99.90
40670;DHT22;26355;45.528;9.234;2023-05-20T02:16:21;17.00;99.90
40670;DHT22;26355;45.528;9.234;2023-05-20T02:18:47;17.10;99.90
40670;DHT22;26355;45.528;9.234;2023-05-20T02:21:12;17.00;99.90
40670;DHT22;26355;45.528;9.234;2023-05-20T02:23:38;17.10;99.90
40670;DHT22;26355;45.528;9.234;2023-05-20T02:26:03;17.80;99.90
40670;DHT22;26355;45.528;9.234;2023-05-20T02:28:29;16.90;99.90
40670;DHT22;26355;45.528;9.234;2023-05-20T02:30:55;17.00;99.90
40670;DHT22;26355;45.528;9.234;2023-05-20T02:33:21;16.90;99.90
40670;DHT22;26355;45.528;9.234;2023-05-20T02:35:46;16.90;99.90
40670;DHT22;26355;45.528;9.234;2023-05-20T02:38:12;16.90;99.90
40670;DHT22;26355;45.528;9.234;2023-05-20T02:40:38;17.00;99.90
40670;DHT22;26355;45.528;9.234;2023-05-20T02:43:03;17.10;99.90
40670;DHT22;26355;45.528;9.234;2023-05-20T02:45:29;16.90;99.90
40670;DHT22;26355;45.528;9.234;2023-05-20T02:47:55;17.00;99.90
40670;DHT22;26355;45.528;9.234;2023-05-20T02:50:21;17.00;99.90
40670;DHT22;26355;45.528;9.234;2023-05-20T02:52:46;16.80;99.90
40670;DHT22;26355;45.528;9.234;2023-05-20T02:55:12;16.90;99.90
40670;DHT22;26355;45.528;9.234;2023-05-20T02:57:38;16.90;99.90
40670;DHT22;26355;45.528;9.234;2023-05-20T03:00:05;16.90;99.90
40670;DHT22;26355;45.528;9.234;2023-05-20T03:02:31;16.90;99.90
40670;DHT22;26355;45.528;9.234;2023-05-20T03:04:57;16.80;99.90
40670;DHT22;26355;45.528;9.234;2023-05-20T03:07:23;16.90;99.90
40670;DHT22;26355;45.528;9.234;2023-05-20T03:09:48;16.90;99.90
40670;DHT22;26355;45.528;9.234;2023-05-20T03:12:14;16.90;99.90
40670;DHT22;26355;45.528;9.234;2023-05-20T03:14:40;16.90;99.90
40670;DHT22;26355;45.528;9.234;2023-05-20T03:17:05;16.90;99.90
40670;DHT22;26355;45.528;9.234;2023-05-20T03:19:31;16.90;99.90
40670;DHT22;26355;45.528;9.234;2023-05-20T03:21:56;16.80;99.90
40670;DHT22;26355;45.528;9.234;2023-05-20T03:24:22;16.80;99.90
40670;DHT22;26355;45.528;9.234;2023-05-20T03:26:48;16.90;99.90
40670;DHT22;26355;45.528;9.234;2023-05-20T03:29:13;16.80;99.90
40670;DHT22;26355;45.528;9.234;2023-05-20T03:31:39;16.80;99.90
40670;DHT22;26355;45.528;9.234;2023-05-20T03:34:05;16.70;99.90
40670;DHT22;26355;45.528;9.234;2023-05-20T03:36:30;16.80;99.90
40670;DHT22;26355;45.528;9.234;2023-05-20T03:38:56;16.80;99.90
40670;DHT22;26355;45.528;9.234;2023-05-20T03:41:22;17.80;99.90
40670;DHT22;26355;45.528;9.234;2023-05-20T03:43:47;16.80;99.90
40670;DHT22;26355;45.528;9.234;2023-05-20T03:46:13;16.80;99.90
40670;DHT22;26355;45.528;9.234;2023-05-20T03:48:38;16.90;99.90
40670;DHT22;26355;45.528;9.234;2023-05-20T03:51:04;16.90;99.90
40670;DHT22;26355;45.528;9.234;2023-05-20T03:53:29;16.80;99.90
40670;DHT22;26355;45.528;9.234;2023-05-20T03:55:55;16.70;99.90
40670;DHT22;26355;45.528;9.234;2023-05-20T03:58:21;16.80;99.90
40670;DHT22;26355;45.528;9.234;2023-05-20T04:00:47;16.90;99.90
40670;DHT22;26355;45.528;9.234;2023-05-20T04:03:13;16.90;99.90
40670;DHT22;26355;45.528;9.234;2023-05-20T04:05:38;16.80;99.90
40670;DHT22;26355;45.528;9.234;2023-05-20T04:08:04;16.80;99.90
40670;DHT22;26355;45.528;9.234;2023-05-20T04:10:30;16.80;99.90
40670;DHT22;26355;45.528;9.234;2023-05-20T04:12:57;16.90;99.90
40670;DHT22;26355;45.528;9.234;2023-05-20T04:15:22;16.80;99.90
40670;DHT22;26355;45.528;9.234;2023-05-20T04:17:49;16.80;99.90
40670;DHT22;26355;45.528;9.234;2023-05-20T04:20:17;16.80;99.90
40670;DHT22;26355;45.528;9.234;2023-05-20T04:22:46;16.70;99.90
40670;DHT22;26355;45.528;9.234;2023-05-20T04:25:12;16.80;99.90
40670;DHT22;26355;45.528;9.234;2023-05-20T04:27:38;16.70;99.90
40670;DHT22;26355;45.528;9.234;2023-05-20T04:30:05;16.80;99.90
40670;DHT22;26355;45.528;9.234;2023-05-20T04:32:31;16.80;99.90
40670;DHT22;26355;45.528;9.234;2023-05-20T04:34:58;16.70;99.90
40670;DHT22;26355;45.528;9.234;2023-05-20T04:37:26;16.80;99.90
40670;DHT22;26355;45.528;9.234;2023-05-20T04:39:52;16.80;99.90
40670;DHT22;26355;45.528;9.234;2023-05-20T04:42:18;16.80;99.90
40670;DHT22;26355;45.528;9.234;2023-05-20T04:44:45;16.80;99.90
40670;DHT22;26355;45.528;9.234;2023-05-20T04:47:12;16.70;99.90
40670;DHT22;26355;45.528;9.234;2023-05-20T04:49:38;16.80;99.90
40670;DHT22;26355;45.528;9.234;2023-05-20T04:52:04;16.70;99.90
40670;DHT22;26355;45.528;9.234;2023-05-20T04:54:31;16.80;99.90
40670;DHT22;26355;45.528;9.234;2023-05-20T04:56:57;16.80;99.90
40670;DHT22;26355;45.528;9.234;2023-05-20T04:59:23;16.80;99.90
40670;DHT22;26355;45.528;9.234;2023-05-20T05:01:49;16.80;99.90
40670;DHT22;26355;45.528;9.234;2023-05-20T05:04:14;16.80;99.90
40670;DHT22;26355;45.528;9.234;2023-05-20T05:06:40;16.90;99.90
40670;DHT22;26355;45.528;9.234;2023-05-20T05:09:05;16.80;99.90
40670;DHT22;26355;45.528;9.234;2023-05-20T05:11:32;16.80;99.90
40670;DHT22;26355;45.528;9.234;2023-05-20T05:13:58;16.90;99.90
40670;DHT22;26355;45.528;9.234;2023-05-20T05:16:23;16.90;99.90
40670;DHT22;26355;45.528;9.234;2023-05-20T05:18:49;16.90;99.90
40670;DHT22;26355;45.528;9.234;2023-05-20T05:21:15;16.90;99.90
40670;DHT22;26355;45.528;9.234;2023-05-20T05:23:40;17.00;99.90
40670;DHT22;26355;45.528;9.234;2023-05-20T05:26:07;16.90;99.90
40670;DHT22;26355;45.528;9.234;2023-05-20T05:28:32;17.00;99.90
40670;DHT22;26355;45.528;9.234;2023-05-20T05:30:58;17.00;99.90
40670;DHT22;26355;45.528;9.234;2023-05-20T05:33:24;17.00;99.90
40670;DHT22;26355;45.528;9.234;2023-05-20T05:35:49;17.10;99.90
40670;DHT22;26355;45.528;9.234;2023-05-20T05:38:15;17.20;99.90
40670;DHT22;26355;45.528;9.234;2023-05-20T05:40:41;17.10;99.90
40670;DHT22;26355;45.528;9.234;2023-05-20T05:43:06;17.40;99.90
40670;DHT22;26355;45.528;9.234;2023-05-20T05:45:32;17.20;99.90
40670;DHT22;26355;45.528;9.234;2023-05-20T05:47:58;17.10;99.90
40670;DHT22;26355;45.528;9.234;2023-05-20T05:50:24;17.20;99.90
40670;DHT22;26355;45.528;9.234;2023-05-20T05:52:49;17.10;99.90
40670;DHT22;26355;45.528;9.234;2023-05-20T05:55:15;17.70;99.90
40670;DHT22;26355;45.528;9.234;2023-05-20T05:57:42;17.20;99.90
40670;DHT22;26355;45.528;9.234;2023-05-20T06:00:08;17.40;99.90
40670;DHT22;26355;45.528;9.234;2023-05-20T06:02:34;17.20;99.90
40670;DHT22;26355;45.528;9.234;2023-05-20T06:05:03;17.20;99.90
40670;DHT22;26355;45.528;9.234;2023-05-20T06:07:29;17.20;99.90
40670;DHT22;26355;45.528;9.234;2023-05-20T06:09:55;17.30;99.90
40670;DHT22;26355;45.528;9.234;2023-05-20T06:12:20;17.30;99.90
40670;DHT22;26355;45.528;9.234;2023-05-20T06:14:46;17.40;99.90
40670;DHT22;26355;45.528;9.234;2023-05-20T06:17:12;17.30;99.90
40670;DHT22;26355;45.528;9.234;2023-05-20T06:19:38;17.60;99.90
40670;DHT22;26355;45.528;9.234;2023-05-20T06:22:03;17.30;99.90
40670;DHT22;26355;45.528;9.234;2023-05-20T06:24:29;17.30;99.90
40670;DHT22;26355;45.528;9.234;2023-05-20T06:26:55;17.30;99.90
40670;DHT22;26355;45.528;9.234;2023-05-20T06:29:20;17.90;99.90
40670;DHT22;26355;45.528;9.234;2023-05-20T06:31:46;17.20;99.90
40670;DHT22;26355;45.528;9.234;2023-05-20T06:34:12;17.30;99.90
40670;DHT22;26355;45.528;9.234;2023-05-20T06:36:37;17.30;99.90
40670;DHT22;26355;45.528;9.234;2023-05-20T06:39:03;17.30;99.90
40670;DHT22;26355;45.528;9.234;2023-05-20T06:41:30;17.30;99.90
40670;DHT22;26355;45.528;9.234;2023-05-20T06:43:56;17.50;99.90
40670;DHT22;26355;45.528;9.234;2023-05-20T06:46:22;17.20;99.90
40670;DHT22;26355;45.528;9.234;2023-05-20T06:48:47;17.40;99.90
40670;DHT22;26355;45.528;9.234;2023-05-20T06:51:13;17.50;99.90
40670;DHT22;26355;45.528;9.234;2023-05-20T06:53:38;17.60;99.90
40670;DHT22;26355;45.528;9.234;2023-05-20T06:56:04;17.60;99.90
40670;DHT22;26355;45.528;9.234;2023-05-20T06:58:30;17.60;99.90
40670;DHT22;26355;45.528;9.234;2023-05-20T07:00:55;17.60;99.90
40670;DHT22;26355;45.528;9.234;2023-05-20T07:03:21;17.70;99.90
40670;DHT22;26355;45.528;9.234;2023-05-20T07:05:47;17.70;99.90
40670;DHT22;26355;45.528;9.234;2023-05-20T07:08:12;17.70;99.90
40670;DHT22;26355;45.528;9.234;2023-05-20T07:10:38;17.70;99.90
40670;DHT22;26355;45.528;9.234;2023-05-20T07:13:04;17.70;99.90
40670;DHT22;26355;45.528;9.234;2023-05-20T07:15:29;17.70;99.90
40670;DHT22;26355;45.528;9.234;2023-05-20T07:17:55;17.70;99.90
40670;DHT22;26355;45.528;9.234;2023-05-20T07:20:21;17.70;99.90
40670;DHT22;26355;45.528;9.234;2023-05-20T07:22:46;17.70;99.90
40670;DHT22;26355;45.528;9.234;2023-05-20T07:25:15;17.70;99.90
40670;DHT22;26355;45.528;9.234;2023-05-20T07:27:40;17.70;99.90
40670;DHT22;26355;45.528;9.234;2023-05-20T07:30:06;17.70;99.90
40670;DHT22;26355;45.528;9.234;2023-05-20T07:32:33;17.70;99.90
40670;DHT22;26355;45.528;9.234;2023-05-20T07:34:58;17.70;99.90
40670;DHT22;26355;45.528;9.234;2023-05-20T07:37:24;17.70;99.90
40670;DHT22;26355;45.528;9.234;2023-05-20T07:39:49;17.70;99.90
40670;DHT22;26355;45.528;9.234;2023-05-20T07:42:15;17.70;99.90
40670;DHT22;26355;45.528;9.234;2023-05-20T07:44:43;17.70;99.90
40670;DHT22;26355;45.528;9.234;2023-05-20T07:47:14;17.80;99.90
40670;DHT22;26355;45.528;9.234;2023-05-20T07:49:40;17.70;99.90
40670;DHT22;26355;45.528;9.234;2023-05-20T07:52:06;17.90;99.90
40670;DHT22;26355;45.528;9.234;2023-05-20T07:54:33;17.90;99.90
40670;DHT22;26355;45.528;9.234;2023-05-20T07:56:58;17.90;99.90
40670;DHT22;26355;45.528;9.234;2023-05-20T07:59:25;18.10;99.90
40670;DHT22;26355;45.528;9.234;2023-05-20T08:01:50;17.90;99.90
40670;DHT22;26355;45.528;9.234;2023-05-20T08:04:16;18.00;99.90
40670;DHT22;26355;45.528;9.234;2023-05-20T08:06:41;17.80;99.90
40670;DHT22;26355;45.528;9.234;2023-05-20T08:09:08;17.90;99.90
40670;DHT22;26355;45.528;9.234;2023-05-20T08:11:34;17.90;99.90
40670;DHT22;26355;45.528;9.234;2023-05-20T08:14:00;18.00;99.90
40670;DHT22;26355;45.528;9.234;2023-05-20T08:16:26;17.90;99.90
40670;DHT22;26355;45.528;9.234;2023-05-20T08:18:52;17.90;99.90
40670;DHT22;26355;45.528;9.234;2023-05-20T08:21:18;18.00;99.90
40670;DHT22;26355;45.528;9.234;2023-05-20T08:23:43;18.00;99.90
40670;DHT22;26355;45.528;9.234;2023-05-20T08:26:09;18.00;99.90
40670;DHT22;26355;45.528;9.234;2023-05-20T08:28:35;18.00;99.90
40670;DHT22;26355;45.528;9.234;2023-05-20T08:31:02;18.10;99.90
40670;DHT22;26355;45.528;9.234;2023-05-20T08:33:28;18.10;99.90
40670;DHT22;26355;45.528;9.234;2023-05-20T08:35:53;18.10;99.90
40670;DHT22;26355;45.528;9.234;2023-05-20T08:38:19;18.20;99.90
40670;DHT22;26355;45.528;9.234;2023-05-20T08:40:45;18.30;99.90
40670;DHT22;26355;45.528;9.234;2023-05-20T08:43:10;18.30;99.90
40670;DHT22;26355;45.528;9.234;2023-05-20T08:45:37;18.40;99.90
40670;DHT22;26355;45.528;9.234;2023-05-20T08:48:03;18.40;99.90
40670;DHT22;26355;45.528;9.234;2023-05-20T08:50:32;18.30;99.90
40670;DHT22;26355;45.528;9.234;2023-05-20T08:52:58;18.30;99.90
40670;DHT22;26355;45.528;9.234;2023-05-20T08:55:27;18.30;99.90
40670;DHT22;26355;45.528;9.234;2023-05-20T08:57:55;18.30;99.90
40670;DHT22;26355;45.528;9.234;2023-05-20T09:00:22;18.30;99.90
40670;DHT22;26355;45.528;9.234;2023-05-20T09:02:51;18.30;99.90
40670;DHT22;26355;45.528;9.234;2023-05-20T09:05:18;18.30;99.90
40670;DHT22;26355;45.528;9.234;2023-05-20T09:07:44;18.40;99.90
40670;DHT22;26355;45.528;9.234;2023-05-20T09:10:10;18.30;99.90
40670;DHT22;26355;45.528;9.234;2023-05-20T09:12:36;18.30;99.90
40670;DHT22;26355;45.528;9.234;2023-05-20T09:15:03;18.30;99.90
40670;DHT22;26355;45.528;9.234;2023-05-20T09:17:29;18.20;99.90
40670;DHT22;26355;45.528;9.234;2023-05-20T09:19:55;18.30;99.90
40670;DHT22;26355;45.528;9.234;2023-05-20T09:22:22;18.30;99.90
40670;DHT22;26355;45.528;9.234;2023-05-20T09:24:49;18.30;99.90
40670;DHT22;26355;45.528;9.234;2023-05-20T09:27:15;18.40;99.90
40670;DHT22;26355;45.528;9.234;2023-05-20T09:29:41;18.20;99.90
40670;DHT22;26355;45.528;9.234;2023-05-20T09:32:09;18.30;99.90
40670;DHT22;26355;45.528;9.234;2023-05-20T09:34:36;18.30;99.90
40670;DHT22;26355;45.528;9.234;2023-05-20T09:37:02;18.40;99.90
40670;DHT22;26355;45.528;9.234;2023-05-20T09:39:34;18.30;99.90
40670;DHT22;26355;45.528;9.234;2023-05-20T09:42:11;18.40;99.90
40670;DHT22;26355;45.528;9.234;2023-05-20T09:44:48;18.40;99.90
40670;DHT22;26355;45.528;9.234;2023-05-20T09:47:15;18.40;99.90
40670;DHT22;26355;45.528;9.234;2023-05-20T09:49:53;18.40;99.90
40670;DHT22;26355;45.528;9.234;2023-05-20T09:52:19;18.50;99.90
40670;DHT22;26355;45.528;9.234;2023-05-20T09:54:45;18.50;99.90
40670;DHT22;26355;45.528;9.234;2023-05-20T09:57:12;18.50;99.90
40670;DHT22;26355;45.528;9.234;2023-05-20T09:59:39;18.50;99.90
40670;DHT22;26355;45.528;9.234;2023-05-20T10:02:05;18.50;99.90
40670;DHT22;26355;45.528;9.234;2023-05-20T10:04:34;18.40;99.90
40670;DHT22;26355;45.528;9.234;2023-05-20T10:21:21;18.50;99.90
40670;DHT22;26355;45.528;9.234;2023-05-20T10:23:51;18.60;99.90
40670;DHT22;26355;45.528;9.234;2023-05-20T10:26:17;18.50;99.90
40670;DHT22;26355;45.528;9.234;2023-05-20T10:28:45;18.50;99.90
40670;DHT22;26355;45.528;9.234;2023-05-20T10:31:21;18.40;99.90
40670;DHT22;26355;45.528;9.234;2023-05-20T10:33:50;18.60;99.90
40670;DHT22;26355;45.528;9.234;2023-05-20T10:36:27;18.60;99.90
40670;DHT22;26355;45.528;9.234;2023-05-20T10:38:56;18.70;99.90
40670;DHT22;26355;45.528;9.234;2023-05-20T10:41:24;18.60;99.90
40670;DHT22;26355;45.528;9.234;2023-05-20T10:44:01;18.60;99.90
40670;DHT22;26355;45.528;9.234;2023-05-20T10:46:28;18.60;99.90
40670;DHT22;26355;45.528;9.234;2023-05-20T10:48:53;18.60;99.90
40670;DHT22;26355;45.528;9.234;2023-05-20T10:51:19;18.60;99.90
40670;DHT22;26355;45.528;9.234;2023-05-20T10:53:45;18.60;99.90
40670;DHT22;26355;45.528;9.234;2023-05-20T10:56:38;18.60;99.90
40670;DHT22;26355;45.528;9.234;2023-05-20T10:59:05;18.50;99.90
40670;DHT22;26355;45.528;9.234;2023-05-20T11:01:31;18.60;99.90
40670;DHT22;26355;45.528;9.234;2023-05-20T11:03:56;18.60;99.90
40670;DHT22;26355;45.528;9.234;2023-05-20T11:06:26;18.50;99.90
40670;DHT22;26355;45.528;9.234;2023-05-20T11:08:53;18.60;99.90
40670;DHT22;26355;45.528;9.234;2023-05-20T11:11:19;18.60;99.90
40670;DHT22;26355;45.528;9.234;2023-05-20T11:13:49;18.50;99.90
40670;DHT22;26355;45.528;9.234;2023-05-20T11:16:16;18.50;99.90
40670;DHT22;26355;45.528;9.234;2023-05-20T11:18:41;18.50;99.90
40670;DHT22;26355;45.528;9.234;2023-05-20T11:21:07;18.60;99.90
40670;DHT22;26355;45.528;9.234;2023-05-20T11:23:32;18.80;99.90
40670;DHT22;26355;45.528;9.234;2023-05-20T11:25:58;18.70;99.90
40670;DHT22;26355;45.528;9.234;2023-05-20T11:28:24;18.70;99.90
40670;DHT22;26355;45.528;9.234;2023-05-20T11:30:54;18.70;99.90
40670;DHT22;26355;45.528;9.234;2023-05-20T11:33:20;18.90;99.90
40670;DHT22;26355;45.528;9.234;2023-05-20T11:35:51;18.90;99.90
40670;DHT22;26355;45.528;9.234;2023-05-20T11:38:18;18.80;99.90
40670;DHT22;26355;45.528;9.234;2023-05-20T11:40:46;18.90;99.90
40670;DHT22;26355;45.528;9.234;2023-05-20T11:43:13;18.80;99.90
40670;DHT22;26355;45.528;9.234;2023-05-20T11:45:43;18.90;99.90
40670;DHT22;26355;45.528;9.234;2023-05-20T11:48:10;18.90;99.90
40670;DHT22;26355;45.528;9.234;2023-05-20T11:50:44;18.90;99.90
40670;DHT22;26355;45.528;9.234;2023-05-20T11:53:14;18.90;99.90
40670;DHT22;26355;45.528;9.234;2023-05-20T11:55:51;18.80;99.90
40670;DHT22;26355;45.528;9.234;2023-05-20T11:58:19;18.80;99.90
40670;DHT22;26355;45.528;9.234;2023-05-20T12:00:45;18.70;99.90
40670;DHT22;26355;45.528;9.234;2023-05-20T12:03:11;18.70;99.90
40670;DHT22;26355;45.528;9.234;2023-05-20T12:05:37;18.70;99.90
40670;DHT22;26355;45.528;9.234;2023-05-20T12:08:03;18.70;99.90
40670;DHT22;26355;45.528;9.234;2023-05-20T12:10:29;18.70;99.90
40670;DHT22;26355;45.528;9.234;2023-05-20T12:12:55;18.60;99.90
40670;DHT22;26355;45.528;9.234;2023-05-20T12:15:21;18.50;99.90
40670;DHT22;26355;45.528;9.234;2023-05-20T12:17:51;18.60;99.90
40670;DHT22;26355;45.528;9.234;2023-05-20T12:20:20;18.80;99.90
40670;DHT22;26355;45.528;9.234;2023-05-20T12:22:46;18.70;99.90
40670;DHT22;26355;45.528;9.234;2023-05-20T12:25:13;18.70;99.90
40670;DHT22;26355;45.528;9.234;2023-05-20T12:27:40;18.80;99.90
40670;DHT22;26355;45.528;9.234;2023-05-20T12:30:07;18.70;99.90
40670;DHT22;26355;45.528;9.234;2023-05-20T12:32:37;18.80;99.90
40670;DHT22;26355;45.528;9.234;2023-05-20T12:35:03;18.90;99.90
40670;DHT22;26355;45.528;9.234;2023-05-20T12:37:29;18.80;99.90
40670;DHT22;26355;45.528;9.234;2023-05-20T12:39:55;19.00;99.90
40670;DHT22;26355;45.528;9.234;2023-05-20T12:42:20;18.80;99.90
40670;DHT22;26355;45.528;9.234;2023-05-20T12:44:46;18.90;99.90
40670;DHT22;26355;45.528;9.234;2023-05-20T12:47:11;18.90;99.90
40670;DHT22;26355;45.528;9.234;2023-05-20T12:49:37;19.20;99.90
40670;DHT22;26355;45.528;9.234;2023-05-20T12:52:03;18.90;99.90
40670;DHT22;26355;45.528;9.234;2023-05-20T12:54:28;19.00;99.90
40670;DHT22;26355;45.528;9.234;2023-05-20T12:56:54;18.90;99.90
40670;DHT22;26355;45.528;9.234;2023-05-20T12:59:20;19.30;99.90
40670;DHT22;26355;45.528;9.234;2023-05-20T13:01:47;19.00;99.90
40670;DHT22;26355;45.528;9.234;2023-05-20T13:04:13;19.00;99.90
40670;DHT22;26355;45.528;9.234;2023-05-20T13:06:38;18.90;99.90
40670;DHT22;26355;45.528;9.234;2023-05-20T13:09:04;19.10;99.90
40670;DHT22;26355;45.528;9.234;2023-05-20T13:11:29;19.10;99.90
40670;DHT22;26355;45.528;9.234;2023-05-20T13:13:55;19.20;99.90
40670;DHT22;26355;45.528;9.234;2023-05-20T13:16:24;19.10;99.90
40670;DHT22;26355;45.528;9.234;2023-05-20T13:18:50;19.00;99.90
40670;DHT22;26355;45.528;9.234;2023-05-20T13:21:16;19.20;99.90
40670;DHT22;26355;45.528;9.234;2023-05-20T13:23:42;19.10;99.90
40670;DHT22;26355;45.528;9.234;2023-05-20T13:26:08;19.30;99.90
40670;DHT22;26355;45.528;9.234;2023-05-20T13:28:34;19.60;99.90
40670;DHT22;26355;45.528;9.234;2023-05-20T13:31:01;19.20;99.90
40670;DHT22;26355;45.528;9.234;2023-05-20T13:33:27;19.40;99.90
40670;DHT22;26355;45.528;9.234;2023-05-20T13:35:53;19.20;99.90
40670;DHT22;26355;45.528;9.234;2023-05-20T13:38:19;19.30;99.90
40670;DHT22;26355;45.528;9.234;2023-05-20T13:40:44;19.20;99.90
40670;DHT22;26355;45.528;9.234;2023-05-20T13:43:10;19.20;99.90
40670;DHT22;26355;45.528;9.234;2023-05-20T13:45:35;19.20;99.90
40670;DHT22;26355;45.528;9.234;2023-05-20T13:48:01;19.20;99.90
40670;DHT22;26355;45.528;9.234;2023-05-20T13:50:27;19.00;99.90
40670;DHT22;26355;45.528;9.234;2023-05-20T13:52:53;19.00;99.90
40670;DHT22;26355;45.528;9.234;2023-05-20T13:55:18;18.90;99.90
40670;DHT22;26355;45.528;9.234;2023-05-20T13:57:44;18.80;99.90
40670;DHT22;26355;45.528;9.234;2023-05-20T14:00:10;18.90;99.90
40670;DHT22;26355;45.528;9.234;2023-05-20T14:02:36;18.80;99.90
40670;DHT22;26355;45.528;9.234;2023-05-20T14:05:01;18.90;99.90
40670;DHT22;26355;45.528;9.234;2023-05-20T14:07:27;18.80;99.90
40670;DHT22;26355;45.528;9.234;2023-05-20T14:09:53;18.80;99.90
40670;DHT22;26355;45.528;9.234;2023-05-20T14:12:18;18.70;99.90
40670;DHT22;26355;45.528;9.234;2023-05-20T14:14:44;18.70;99.90
40670;DHT22;26355;45.528;9.234;2023-05-20T14:17:10;18.80;99.90
40670;DHT22;26355;45.528;9.234;2023-05-20T14:19:36;18.80;99.90
40670;DHT22;26355;45.528;9.234;2023-05-20T14:22:01;18.70;99.90
40670;DHT22;26355;45.528;9.234;2023-05-20T14:24:27;18.90;99.90
40670;DHT22;26355;45.528;9.234;2023-05-20T14:26:53;18.80;99.90
40670;DHT22;26355;45.528;9.234;2023-05-20T14:29:19;18.80;99.90
40670;DHT22;26355;45.528;9.234;2023-05-20T14:31:45;18.80;99.90
40670;DHT22;26355;45.528;9.234;2023-05-20T14:34:10;18.80;99.90
40670;DHT22;26355;45.528;9.234;2023-05-20T14:36:36;18.90;99.90
40670;DHT22;26355;45.528;9.234;2023-05-20T14:39:02;18.80;99.90
40670;DHT22;26355;45.528;9.234;2023-05-20T14:41:27;18.70;99.90
40670;DHT22;26355;45.528;9.234;2023-05-20T14:43:53;19.20;99.90
40670;DHT22;26355;45.528;9.234;2023-05-20T14:46:19;18.80;99.90
40670;DHT22;26355;45.528;9.234;2023-05-20T14:48:45;18.60;99.90
40670;DHT22;26355;45.528;9.234;2023-05-20T14:51:11;18.60;99.90
40670;DHT22;26355;45.528;9.234;2023-05-20T14:53:36;18.60;99.90
40670;DHT22;26355;45.528;9.234;2023-05-20T14:56:02;18.60;99.90
40670;DHT22;26355;45.528;9.234;2023-05-20T14:58:28;18.70;99.90
40670;DHT22;26355;45.528;9.234;2023-05-20T15:00:54;18.60;99.90
40670;DHT22;26355;45.528;9.234;2023-05-20T15:03:20;18.50;99.90
40670;DHT22;26355;45.528;9.234;2023-05-20T15:05:47;18.60;99.90
40670;DHT22;26355;45.528;9.234;2023-05-20T15:08:13;18.50;99.90
40670;DHT22;26355;45.528;9.234;2023-05-20T15:10:39;18.60;99.90
40670;DHT22;26355;45.528;9.234;2023-05-20T15:13:04;18.70;99.90
40670;DHT22;26355;45.528;9.234;2023-05-20T15:15:30;19.20;99.90
40670;DHT22;26355;45.528;9.234;2023-05-20T15:17:56;18.50;99.90
40670;DHT22;26355;45.528;9.234;2023-05-20T15:20:21;18.70;99.90
40670;DHT22;26355;45.528;9.234;2023-05-20T15:22:47;18.80;99.90
40670;DHT22;26355;45.528;9.234;2023-05-20T15:25:13;18.60;99.90
40670;DHT22;26355;45.528;9.234;2023-05-20T15:27:40;18.60;99.90
40670;DHT22;26355;45.528;9.234;2023-05-20T15:30:07;18.50;99.90
40670;DHT22;26355;45.528;9.234;2023-05-20T15:32:33;18.60;99.90
40670;DHT22;26355;45.528;9.234;2023-05-20T15:34:58;18.50;99.90
40670;DHT22;26355;45.528;9.234;2023-05-20T15:37:25;18.60;99.90
40670;DHT22;26355;45.528;9.234;2023-05-20T15:39:50;18.40;99.90
40670;DHT22;26355;45.528;9.234;2023-05-20T15:42:16;18.60;99.90